Time;durP1;ratioP1;P1;durP2;ratioP2;P2;SDS_P1;SDS_P2;PMS_P1;PMS_P2;Temp;Humidity;BMP_temperature;BMP_pressure;BME280_temperature;BME280_humidity;BME280_pressure;Samples;Min_cycle;Max_cycle;Signal;HPM_P1;HPM_P2
2022/12/27 00:01:33;;;;;;;2.38;1.55;;;20.50;64.20;;;;;;5017308;28;87948;-89
2022/12/27 00:03:58;;;;;;;2.03;1.25;;;20.50;64.10;;;;;;5017127;28;87811;-89
2022/12/27 00:06:26;;;;;;;3.20;1.20;;;20.50;64.20;;;;;;5015395;28;91158;-88
2022/12/27 00:08:52;;;;;;;2.83;1.25;;;20.40;63.90;;;;;;5009387;28;91353;-89
2022/12/27 00:11:31;;;;;;;;;;;;;;;;;;;;;
2022/12/27 00:14:00;;;;;;;2.75;1.55;;;20.40;64.00;;;;;;5016739;28;88649;-88
2022/12/27 00:16:26;;;;;;;2.70;1.38;;;20.40;64.10;;;;;;5016429;28;90350;-88
2022/12/27 00:18:52;;;;;;;1.58;1.15;;;20.40;64.10;;;;;;5016985;28;89248;-88
2022/12/27 00:21:19;;;;;;;1.85;1.38;;;20.40;64.20;;;;;;5017123;28;90145;-89
2022/12/27 00:23:48;;;;;;;2.20;0.93;;;20.30;64.10;;;;;;5016425;28;87296;-89
2022/12/27 00:26:23;;;;;;;1.58;1.13;;;20.30;64.20;;;;;;5017027;28;87843;-89
2022/12/27 00:28:49;;;;;;;2.03;1.25;;;20.30;64.30;;;;;;5005933;28;91423;-88
2022/12/27 00:31:17;;;;;;;1.83;1.10;;;20.30;64.30;;;;;;5032321;28;87560;-89
2022/12/27 00:33:44;;;;;;;1.63;1.10;;;20.30;65.00;;;;;;5004023;28;90778;-89
2022/12/27 00:36:29;;;;;;;2.03;1.27;;;20.30;64.20;;;;;;5016332;28;90400;-88
2022/12/27 00:38:56;;;;;;;1.85;1.10;;;20.20;64.20;;;;;;5016544;28;87863;-89
2022/12/27 00:41:22;;;;;;;1.58;1.15;;;20.20;64.30;;;;;;5016481;28;88308;-89
2022/12/27 00:43:48;;;;;;;2.35;1.40;;;20.20;64.90;;;;;;5017151;28;87755;-86
2022/12/27 00:46:14;;;;;;;1.88;1.13;;;20.20;64.00;;;;;;5016301;28;88635;-89
2022/12/27 00:48:40;;;;;;;1.70;1.00;;;20.20;64.30;;;;;;5016259;28;88713;-88
2022/12/27 00:51:20;;;;;;;2.05;1.20;;;20.20;64.20;;;;;;5016201;28;87288;-89
2022/12/27 00:53:46;;;;;;;2.33;1.30;;;20.20;64.40;;;;;;5016175;28;87293;-88
2022/12/27 00:56:18;;;;;;;1.60;1.20;;;20.10;64.00;;;;;;5011500;28;90133;-88
2022/12/27 00:58:44;;;;;;;1.63;1.13;;;20.10;64.20;;;;;;5028125;28;90829;-89
2022/12/27 01:01:22;;;;;;;2.38;1.35;;;20.10;64.40;;;;;;5012884;28;87514;-89
2022/12/27 01:03:47;;;;;;;2.40;1.15;;;20.10;64.30;;;;;;5012459;28;87932;-89
2022/12/27 01:06:16;;;;;;;1.60;1.08;;;20.10;64.30;;;;;;5012022;28;89483;-88
2022/12/27 01:08:42;;;;;;;2.50;1.27;;;20.10;64.10;;;;;;5012066;28;88756;-88
2022/12/27 01:13:44;;;;;;;1.67;1.15;;;20.10;64.50;;;;;;5013833;28;87995;-88
2022/12/27 01:16:21;;;;;;;1.98;1.35;;;20.00;64.20;;;;;;5014182;28;89790;-88
2022/12/27 01:18:47;;;;;;;2.95;1.35;;;20.00;64.30;;;;;;5015513;28;87810;-88
2022/12/27 01:21:15;;;;;;;4.57;1.42;;;20.00;64.30;;;;;;5015749;28;87453;-87
2022/12/27 01:23:41;;;;;;;1.90;1.20;;;20.00;64.30;;;;;;5015841;28;87465;-89
2022/12/27 01:26:21;;;;;;;1.30;0.80;;;20.00;64.30;;;;;;5015251;28;88294;-88
2022/12/27 01:28:48;;;;;;;2.38;1.35;;;20.00;64.40;;;;;;5015836;28;88276;-88
2022/12/27 01:31:17;;;;;;;2.30;1.00;;;20.00;64.30;;;;;;5015802;28;87986;-88
2022/12/27 01:33:43;;;;;;;2.15;1.23;;;20.00;64.30;;;;;;5016125;28;87909;-88
2022/12/27 01:36:14;;;;;;;2.08;1.10;;;20.00;64.20;;;;;;5015177;28;88115;-89
2022/12/27 01:38:42;;;;;;;1.27;1.00;;;19.90;64.40;;;;;;5016055;28;87779;-88
2022/12/27 01:44:48;;;;;;;1.48;1.00;;;19.90;64.30;;;;;;5015670;28;87255;-87
2022/12/27 01:47:16;;;;;;;1.92;1.10;;;19.90;64.40;;;;;;5014997;28;88598;-89
2022/12/27 01:49:55;;;;;;;1.85;1.05;;;19.90;64.40;;;;;;5016499;28;87776;-88
2022/12/27 01:52:23;;;;;;;2.27;1.13;;;19.90;64.50;;;;;;5016470;28;87463;-88
2022/12/27 01:54:49;;;;;;;1.55;0.90;;;19.90;64.50;;;;;;5014436;28;87309;-88
2022/12/27 01:57:15;;;;;;;3.17;1.35;;;19.90;64.70;;;;;;5014975;28;88976;-89
2022/12/27 01:59:41;;;;;;;2.08;1.20;;;19.80;64.60;;;;;;5015686;28;89553;-89
2022/12/27 02:02:07;;;;;;;1.20;0.90;;;19.80;64.50;;;;;;5014061;28;87076;-87
2022/12/27 02:04:33;;;;;;;1.70;1.15;;;19.80;64.60;;;;;;5015544;28;87466;-87
2022/12/27 02:07:00;;;;;;;1.50;0.95;;;19.80;64.50;;;;;;5015682;28;88505;-89
2022/12/27 02:09:37;;;;;;;2.65;1.02;;;19.80;64.30;;;;;;5014454;28;87930;-88
2022/12/27 02:12:06;;;;;;;1.42;0.77;;;19.80;64.40;;;;;;5014946;28;87484;-89
2022/12/27 02:14:47;;;;;;;1.83;1.05;;;19.80;64.60;;;;;;5014012;28;88960;-88
2022/12/27 02:17:24;;;;;;;2.42;1.20;;;19.80;64.70;;;;;;5013824;28;90322;-88
2022/12/27 02:20:08;;;;;;;1.40;1.10;;;19.70;64.70;;;;;;5015012;28;88256;-89
2022/12/27 02:25:55;;;;;;;1.73;1.02;;;19.70;64.50;;;;;;5014647;28;87254;-89
2022/12/27 02:28:58;;;;;;;1.00;0.80;;;19.70;64.70;;;;;;5006600;28;90989;-88
2022/12/27 02:31:47;;;;;;;1.70;1.00;;;19.70;64.60;;;;;;5004908;28;89953;-88
2022/12/27 02:34:41;;;;;;;1.63;1.13;;;19.70;64.50;;;;;;5015196;28;87426;-89
2022/12/27 02:37:09;;;;;;;1.20;0.90;;;19.70;65.40;;;;;;5015393;28;87195;-89
2022/12/27 02:39:39;;;;;;;1.50;0.90;;;19.60;64.60;;;;;;5013203;28;91834;-87
2022/12/27 02:53:44;;;;;;;0.95;0.88;;;19.60;64.50;;;;;;5014655;28;87656;-89
2022/12/27 03:06:38;;;;;;;1.58;0.98;;;19.50;64.50;;;;;;4992538;28;86939;-89
2022/12/27 03:08:44;;;;;;;1.00;0.75;;;19.60;64.40;;;;;;4992030;28;86989;-89
2022/12/27 03:16:58;;;;;;;2.33;1.00;;;19.50;64.20;;;;;;4991947;28;87017;-88
2022/12/27 03:33:11;;;;;;;1.40;0.85;;;19.50;64.60;;;;;;4991385;28;87450;-88
2022/12/27 03:33:25;;;;;;;1.90;0.90;;;19.50;64.50;;;;;;5006674;28;87362;-89
2022/12/27 03:39:16;;;;;;;1.25;0.98;;;19.40;64.20;;;;;;4972147;28;86944;-89
2022/12/27 03:44:35;;;;;;;2.05;0.90;;;19.40;64.50;;;;;;4970528;28;87741;-88
2022/12/27 03:47:12;;;;;;;1.02;0.80;;;19.40;64.60;;;;;;4970968;28;90076;-89
2022/12/27 03:49:45;;;;;;;1.17;0.90;;;19.40;64.70;;;;;;4971700;28;89876;-89
2022/12/27 03:52:21;;;;;;;1.50;0.90;;;19.40;64.60;;;;;;4972223;28;87476;-88
2022/12/27 03:54:49;;;;;;;1.48;0.75;;;19.40;64.70;;;;;;4971602;28;90949;-88
2022/12/27 03:57:19;;;;;;;1.77;0.93;;;19.30;64.50;;;;;;4970459;28;88693;-88
2022/12/27 03:59:45;;;;;;;1.42;1.00;;;19.30;64.60;;;;;;4971657;28;88345;-88
2022/12/27 04:02:11;;;;;;;2.20;1.25;;;19.30;64.70;;;;;;4971393;28;87437;-88
2022/12/27 04:04:37;;;;;;;1.15;0.90;;;19.40;64.60;;;;;;4972475;28;86953;-88
2022/12/27 04:07:04;;;;;;;2.75;1.10;;;19.30;64.50;;;;;;4971195;28;88474;-88
2022/12/27 04:36:52;;;;;;;1.58;0.80;;;19.20;64.30;;;;;;5017002;28;87838;-88
2022/12/27 04:39:18;;;;;;;0.80;0.73;;;19.20;64.50;;;;;;5016174;28;89362;-87
2022/12/27 04:55:31;;;;;;;1.05;0.88;;;19.20;64.30;;;;;;5016495;28;87456;-89
2022/12/27 04:57:58;;;;;;;1.65;0.85;;;19.20;64.50;;;;;;5017006;28;87603;-88
2022/12/27 05:03:15;;;;;;;1.60;0.90;;;19.10;64.40;;;;;;5016696;28;87517;-88
2022/12/27 05:05:42;;;;;;;;;;;19.20;64.50;;;;;;5015461;28;88938;-88
2022/12/27 05:16:21;;;;;;;2.72;1.20;;;19.10;64.20;;;;;;5015715;28;87043;-88
2022/12/27 05:18:46;;;;;;;0.75;0.73;;;19.10;64.00;;;;;;5016091;28;87937;-87
2022/12/27 05:21:12;;;;;;;1.15;0.75;;;19.10;64.00;;;;;;5015141;28;88384;-89
2022/12/27 05:26:25;;;;;;;1.48;1.13;;;19.10;64.10;;;;;;5016027;28;87299;-88
2022/12/27 05:28:52;;;;;;;1.20;0.70;;;19.10;64.20;;;;;;5014765;28;87767;-88
2022/12/27 05:31:19;;;;;;;1.95;0.80;;;19.10;64.00;;;;;;5015435;28;89423;-89
2022/12/27 05:33:44;;;;;;;1.08;0.98;;;19.10;64.00;;;;;;5015435;28;89239;-88
2022/12/27 05:36:10;;;;;;;0.95;0.70;;;19.10;64.00;;;;;;5016068;28;88932;-88
2022/12/27 05:38:36;;;;;;;1.20;0.77;;;19.10;64.10;;;;;;5016377;28;87647;-88
2022/12/27 05:41:02;;;;;;;1.48;0.95;;;19.10;64.20;;;;;;5013699;28;90600;-89
2022/12/27 05:43:29;;;;;;;0.80;0.77;;;19.00;64.80;;;;;;5016206;28;88628;-88
2022/12/27 05:46:01;;;;;;;1.90;0.77;;;19.00;64.30;;;;;;5006173;28;87397;-88
2022/12/27 05:48:27;;;;;;;0.90;0.70;;;19.00;64.30;;;;;;5016446;28;86725;-87
2022/12/27 05:50:52;;;;;;;0.80;0.65;;;19.00;64.70;;;;;;5015321;28;87386;-89
2022/12/27 05:53:18;;;;;;;1.08;0.90;;;19.10;64.80;;;;;;5015512;28;88194;-88
2022/12/27 05:56:04;;;;;;;1.08;0.85;;;19.00;64.60;;;;;;5015277;28;88476;-89
2022/12/27 05:58:30;;;;;;;1.42;0.77;;;19.10;64.70;;;;;;5014553;28;87673;-88
2022/12/27 06:00:56;;;;;;;1.05;0.85;;;19.10;64.70;;;;;;5015990;28;89472;-88
2022/12/27 06:03:22;;;;;;;0.80;0.70;;;19.00;64.70;;;;;;5015656;28;87036;-88
2022/12/27 06:05:48;;;;;;;0.90;0.70;;;19.00;64.50;;;;;;5014685;28;87312;-88
2022/12/27 06:08:14;;;;;;;1.73;0.90;;;19.00;64.50;;;;;;5014946;28;87292;-89
2022/12/27 06:10:40;;;;;;;1.02;0.80;;;19.00;64.50;;;;;;5015347;28;88688;-88
2022/12/27 06:13:05;;;;;;;1.67;0.93;;;19.00;64.60;;;;;;5015168;28;87854;-87
2022/12/27 06:15:31;;;;;;;0.80;0.77;;;19.00;64.60;;;;;;5015631;28;87165;-89
2022/12/27 06:17:58;;;;;;;1.45;0.77;;;19.00;64.50;;;;;;5015185;28;87249;-88
2022/12/27 06:20:24;;;;;;;1.10;0.80;;;19.00;64.70;;;;;;5014724;28;89158;-89
2022/12/27 06:22:49;;;;;;;1.35;0.82;;;19.00;64.60;;;;;;5014972;28;89774;-88
2022/12/27 06:25:15;;;;;;;1.00;0.80;;;19.00;64.70;;;;;;5015255;28;87454;-88
2022/12/27 06:27:41;;;;;;;1.58;0.85;;;19.00;64.50;;;;;;5014425;28;87259;-89
2022/12/27 06:30:07;;;;;;;1.20;0.80;;;19.00;64.40;;;;;;5014466;28;88004;-89
2022/12/27 06:32:34;;;;;;;0.80;0.73;;;19.00;64.30;;;;;;5014429;28;89854;-88
2022/12/27 06:35:07;;;;;;;0.90;0.80;;;19.00;64.40;;;;;;5015120;28;87198;-88
2022/12/27 06:37:33;;;;;;;1.65;0.60;;;19.00;64.50;;;;;;5015364;28;87466;-88
2022/12/27 06:39:58;;;;;;;1.70;0.90;;;19.00;64.50;;;;;;5015194;28;88587;-88
2022/12/27 06:42:24;;;;;;;0.90;0.70;;;19.00;64.50;;;;;;5015302;28;88490;-88
2022/12/27 06:44:49;;;;;;;0.85;0.80;;;18.90;64.40;;;;;;5015030;28;87866;-89
2022/12/27 06:47:15;;;;;;;1.20;0.73;;;18.90;64.40;;;;;;5015489;28;87518;-89
2022/12/27 06:49:40;;;;;;;1.08;0.85;;;19.00;64.40;;;;;;5015505;28;88601;-88
2022/12/27 06:52:06;;;;;;;0.95;0.60;;;19.00;64.20;;;;;;5012922;28;90322;-89
2022/12/27 06:54:32;;;;;;;1.48;0.90;;;18.90;64.30;;;;;;5015126;28;87308;-88
2022/12/27 06:56:57;;;;;;;1.23;0.88;;;18.90;64.50;;;;;;5015096;28;88197;-88
2022/12/27 06:59:23;;;;;;;0.77;0.70;;;18.90;64.50;;;;;;5012393;28;92064;-88
2022/12/27 07:01:49;;;;;;;0.90;0.70;;;18.90;64.40;;;;;;5015400;28;88114;-89
2022/12/27 07:04:14;;;;;;;1.17;0.85;;;18.90;64.50;;;;;;5014555;28;87047;-88
2022/12/27 07:06:40;;;;;;;1.05;0.70;;;18.90;64.40;;;;;;5014458;28;87627;-89
2022/12/27 07:09:06;;;;;;;1.52;0.98;;;18.90;64.30;;;;;;5014221;28;89081;-88
2022/12/27 07:11:33;;;;;;;1.48;0.85;;;18.90;64.50;;;;;;5011710;28;91390;-87
2022/12/27 07:13:59;;;;;;;1.02;0.73;;;18.90;64.40;;;;;;5012813;28;87280;-87
2022/12/27 07:16:27;;;;;;;1.73;0.90;;;18.90;64.40;;;;;;5014318;28;86981;-87
2022/12/27 07:19:10;;;;;;;0.88;0.70;;;18.90;64.20;;;;;;5013487;28;88707;-87
2022/12/27 07:21:36;;;;;;;1.90;0.80;;;18.90;64.00;;;;;;5013662;28;88350;-88
2022/12/27 07:24:02;;;;;;;1.15;0.80;;;18.90;64.20;;;;;;5013951;28;87438;-88
2022/12/27 07:26:29;;;;;;;1.10;0.70;;;18.90;64.10;;;;;;5012721;28;90287;-89
2022/12/27 07:28:56;;;;;;;0.80;0.80;;;18.90;64.20;;;;;;5012650;28;89108;-88
2022/12/27 07:31:25;;;;;;;0.88;0.80;;;18.80;64.20;;;;;;5014152;28;87376;-88
2022/12/27 07:33:51;;;;;;;0.70;0.63;;;18.80;64.20;;;;;;5003216;28;89083;-87
2022/12/27 07:36:23;;;;;;;0.73;0.52;;;18.80;64.30;;;;;;5013981;28;87620;-88
2022/12/27 07:38:49;;;;;;;0.70;0.70;;;18.80;64.50;;;;;;5013697;28;88019;-88
2022/12/27 07:41:15;;;;;;;1.05;0.85;;;18.80;64.60;;;;;;5013713;28;88192;-89
2022/12/27 07:43:43;;;;;;;1.58;0.85;;;18.80;64.30;;;;;;5014178;28;87303;-88
2022/12/27 07:46:28;;;;;;;1.80;0.90;;;18.80;64.50;;;;;;5014516;28;89340;-89
2022/12/27 07:48:56;;;;;;;1.38;0.70;;;18.70;64.30;;;;;;5016736;28;88119;-88
2022/12/27 07:51:22;;;;;;;0.98;0.60;;;18.70;64.40;;;;;;5017198;28;88905;-87
2022/12/27 07:53:49;;;;;;;1.50;0.73;;;18.70;65.30;;;;;;5016413;28;87696;-87
2022/12/27 07:56:17;;;;;;;2.97;0.80;;;18.90;62.90;;;;;;5016829;28;88550;-87
2022/12/27 07:58:45;;;;;;;0.80;0.70;;;19.10;62.30;;;;;;5016534;28;89554;-85
2022/12/27 08:01:12;;;;;;;1.77;1.00;;;19.20;62.90;;;;;;5016024;28;88162;-86
2022/12/27 08:03:39;;;;;;;1.92;1.13;;;19.20;62.20;;;;;;5006566;28;87302;-86
2022/12/27 08:06:06;;;;;;;2.25;1.00;;;19.30;61.40;;;;;;5015971;28;87262;-85
2022/12/27 08:08:43;;;;;;;4.20;1.10;;;19.30;61.40;;;;;;5014978;28;92536;-84
2022/12/27 08:11:09;;;;;;;1.83;0.90;;;19.60;61.60;;;;;;5021967;28;87167;-85
2022/12/27 08:13:43;;;;;;;2.03;1.23;;;19.70;61.20;;;;;;5012633;28;87366;-86
2022/12/27 08:16:15;;;;;;;1.77;1.13;;;19.90;61.20;;;;;;5010547;28;90576;-86
2022/12/27 08:18:41;;;;;;;3.30;1.08;;;20.10;61.30;;;;;;5011750;28;88188;-85
2022/12/27 08:21:07;;;;;;;3.45;1.30;;;20.10;60.70;;;;;;5010797;28;91311;-87
2022/12/27 08:23:32;;;;;;;7.57;1.30;;;20.10;61.80;;;;;;5013208;28;88323;-87
2022/12/27 08:25:58;;;;;;;4.50;1.13;;;20.10;60.70;;;;;;5011032;28;87657;-88
2022/12/27 08:28:24;;;;;;;4.75;1.50;;;20.10;61.10;;;;;;5003382;27;89643;-86
2022/12/27 08:30:49;;;;;;;6.68;1.30;;;20.20;60.80;;;;;;5009632;27;88576;-87
2022/12/27 08:33:15;;;;;;;3.33;1.20;;;20.20;61.40;;;;;;5014009;27;88681;-86
2022/12/27 08:35:43;;;;;;;4.55;1.23;;;20.20;61.80;;;;;;5015752;27;87554;-88
2022/12/27 08:38:09;;;;;;;4.03;1.48;;;20.10;61.50;;;;;;5016424;28;88847;-88
2022/12/27 08:40:39;;;;;;;1.83;0.90;;;20.10;61.70;;;;;;5017259;27;87946;-87
2022/12/27 08:43:05;;;;;;;3.28;1.00;;;20.00;62.00;;;;;;5016334;27;87059;-90
2022/12/27 08:45:30;;;;;;;3.58;0.98;;;20.00;62.00;;;;;;5016747;27;87064;-90
2022/12/27 08:48:07;;;;;;;1.38;0.80;;;19.90;62.10;;;;;;5014416;27;92659;-88
2022/12/27 08:50:33;;;;;;;2.47;1.13;;;19.90;62.50;;;;;;5016247;27;89216;-90
2022/12/27 08:53:00;;;;;;;2.85;1.08;;;20.00;62.60;;;;;;5016715;28;87484;-89
2022/12/27 08:55:27;;;;;;;3.25;0.93;;;19.90;62.40;;;;;;5014611;27;87625;-91
2022/12/27 08:58:05;;;;;;;2.13;1.10;;;20.00;62.30;;;;;;5015207;27;88862;-89
2022/12/27 09:00:31;;;;;;;4.28;1.25;;;20.00;62.30;;;;;;5016870;27;88370;-91
2022/12/27 09:02:58;;;;;;;5.45;1.17;;;20.00;62.40;;;;;;5013756;27;87214;-91
2022/12/27 09:05:25;;;;;;;5.78;1.40;;;20.00;62.30;;;;;;5015977;27;88718;-92
2022/12/27 09:07:51;;;;;;;3.90;1.27;;;20.00;62.50;;;;;;5016940;28;88229;-92
2022/12/27 09:10:17;;;;;;;1.48;1.00;;;20.00;62.50;;;;;;5011027;28;91386;-91
2022/12/27 09:12:44;;;;;;;2.95;1.30;;;20.00;62.40;;;;;;4985762;28;88163;-88
2022/12/27 09:15:10;;;;;;;5.75;1.38;;;20.10;62.00;;;;;;4995423;28;87542;-88
2022/12/27 09:17:48;;;;;;;93.68;18.75;;;20.10;61.20;;;;;;4994434;28;90691;-89
2022/12/27 09:20:13;;;;;;;44.20;8.90;;;20.10;60.70;;;;;;4995748;28;88253;-88
2022/12/27 09:22:39;;;;;;;38.42;8.00;;;20.20;61.00;;;;;;4989554;27;87189;-90
2022/12/27 09:25:05;;;;;;;45.47;10.35;;;20.20;61.40;;;;;;4998358;27;87336;-89
2022/12/27 09:27:33;;;;;;;37.95;8.10;;;20.10;61.60;;;;;;5004383;28;89265;-90
2022/12/27 09:29:59;;;;;;;35.80;7.70;;;20.10;61.80;;;;;;5014522;27;88910;-89
2022/12/27 09:32:26;;;;;;;30.13;6.68;;;20.00;62.00;;;;;;5014060;27;87280;-89
2022/12/27 09:34:53;;;;;;;44.97;8.52;;;20.10;61.30;;;;;;5015816;28;87309;-88
2022/12/27 09:37:18;;;;;;;28.00;7.60;;;20.10;62.10;;;;;;5013671;27;90245;-90
2022/12/27 09:39:44;;;;;;;35.75;7.45;;;20.00;62.60;;;;;;5013723;27;88859;-91
2022/12/27 09:42:30;;;;;;;25.95;7.32;;;20.10;62.20;;;;;;5012999;27;87351;-92
2022/12/27 09:45:07;;;;;;;27.92;6.93;;;20.00;63.30;;;;;;5009739;27;90638;-90
2022/12/27 09:48:00;;;;;;;29.75;7.72;;;20.00;62.50;;;;;;4993226;28;92483;-91
2022/12/27 09:50:53;;;;;;;28.15;7.85;;;19.90;63.50;;;;;;4982888;28;92081;-92
2022/12/27 09:53:33;;;;;;;31.92;9.57;;;20.00;65.30;;;;;;4973967;28;87480;-89
2022/12/27 09:55:59;;;;;;;30.65;8.50;;;20.00;65.60;;;;;;5008738;28;86619;-89
2022/12/27 09:58:49;;;;;;;29.33;7.60;;;20.00;64.40;;;;;;4994959;28;88691;-91
2022/12/27 10:01:23;;;;;;;32.38;7.70;;;20.00;63.70;;;;;;4985408;28;88492;-90
2022/12/27 10:03:49;;;;;;;24.92;6.57;;;19.90;63.70;;;;;;4982358;28;88573;-92
2022/12/27 10:06:30;;;;;;;33.30;7.72;;;19.90;64.00;;;;;;4982237;28;90267;-91
2022/12/27 10:09:27;;;;;;;22.30;6.28;;;19.90;64.00;;;;;;4993675;28;88891;-90
2022/12/27 10:11:55;;;;;;;26.55;7.85;;;19.90;64.20;;;;;;4984426;28;91783;-91
2022/12/27 10:14:44;;;;;;;25.77;7.47;;;19.90;65.30;;;;;;4984634;28;87739;-89
2022/12/27 10:17:34;;;;;;;25.03;7.87;;;19.90;64.80;;;;;;4969600;28;87325;-88
2022/12/27 10:20:30;;;;;;;24.88;7.03;;;20.00;66.50;;;;;;4990877;28;92859;-89
2022/12/27 10:23:01;;;;;;;26.55;8.95;;;20.00;64.60;;;;;;4991302;28;93127;-89
2022/12/27 10:25:27;;;;;;;30.35;8.77;;;20.00;66.00;;;;;;4991427;28;87492;-89
2022/12/27 10:28:00;;;;;;;25.20;7.80;;;20.00;65.00;;;;;;4990442;28;87419;-88
2022/12/27 10:30:28;;;;;;;23.38;6.72;;;20.00;64.80;;;;;;4991326;28;89559;-88
2022/12/27 10:32:54;;;;;;;22.45;6.20;;;20.00;64.70;;;;;;4991037;28;89358;-88
2022/12/27 10:35:20;;;;;;;19.30;6.80;;;20.00;64.40;;;;;;4990511;28;87352;-87
2022/12/27 10:37:47;;;;;;;23.50;7.07;;;20.10;64.10;;;;;;4993073;28;87287;-86
2022/12/27 10:40:15;;;;;;;25.88;7.05;;;20.10;64.00;;;;;;4991383;28;89201;-91
2022/12/27 10:42:46;;;;;;;25.27;6.75;;;20.20;63.60;;;;;;4992558;28;87546;-91
2022/12/27 10:45:25;;;;;;;25.27;7.25;;;20.10;64.00;;;;;;4993410;28;87103;-91
2022/12/27 10:47:52;;;;;;;19.48;6.13;;;20.10;64.10;;;;;;5000457;27;86638;-90
2022/12/27 10:50:22;;;;;;;24.33;6.57;;;20.00;64.40;;;;;;5014874;27;87386;-89
2022/12/27 10:52:48;;;;;;;30.58;6.75;;;20.10;64.40;;;;;;5014560;28;88003;-90
2022/12/27 10:55:30;;;;;;;19.98;5.82;;;20.10;64.30;;;;;;5014129;27;87984;-90
2022/12/27 10:57:55;;;;;;;18.33;6.28;;;20.10;64.30;;;;;;5014096;27;87897;-89
2022/12/27 11:00:22;;;;;;;14.43;5.88;;;20.20;63.90;;;;;;5014274;27;88165;-90
2022/12/27 11:02:56;;;;;;;20.98;6.38;;;20.40;63.40;;;;;;5012599;27;88323;-89
2022/12/27 11:05:27;;;;;;;16.98;6.07;;;20.40;63.40;;;;;;5024116;27;86984;-88
2022/12/27 11:07:54;;;;;;;19.50;5.57;;;20.40;63.30;;;;;;5014348;28;87419;-88
2022/12/27 11:10:22;;;;;;;13.70;5.35;;;20.50;63.00;;;;;;5013981;27;88091;-89
2022/12/27 11:12:55;;;;;;;13.77;5.47;;;20.50;62.90;;;;;;5013159;27;87923;-89
2022/12/27 11:15:21;;;;;;;17.73;5.40;;;20.50;62.90;;;;;;5014478;27;87373;-88
2022/12/27 11:17:53;;;;;;;15.82;5.10;;;20.60;62.90;;;;;;5013113;27;87886;-88
2022/12/27 11:20:37;;;;;;;21.45;6.18;;;20.70;62.70;;;;;;5008400;27;90726;-89
2022/12/27 11:23:08;;;;;;;15.65;5.15;;;20.70;62.60;;;;;;5014266;28;89312;-89
2022/12/27 11:25:35;;;;;;;20.17;5.70;;;20.80;62.40;;;;;;5013812;27;87412;-89
2022/12/27 11:28:21;;;;;;;21.45;5.57;;;20.80;62.50;;;;;;5012300;27;89157;-89
2022/12/27 11:30:56;;;;;;;14.77;5.35;;;20.80;62.80;;;;;;5002713;28;91669;-90
2022/12/27 11:33:46;;;;;;;19.38;4.88;;;20.90;62.70;;;;;;5014658;27;87223;-90
2022/12/27 11:36:14;;;;;;;21.20;5.60;;;20.80;62.40;;;;;;5003207;28;87224;-89
2022/12/27 11:38:43;;;;;;;16.80;4.95;;;20.80;62.10;;;;;;5004897;28;90517;-91
2022/12/27 11:41:33;;;;;;;23.52;5.70;;;20.80;61.90;;;;;;5007405;28;91694;-90
2022/12/27 11:44:25;;;;;;;15.48;4.93;;;20.80;62.20;;;;;;5012938;28;92206;-90
2022/12/27 11:46:57;;;;;;;15.02;4.85;;;20.80;62.50;;;;;;5012458;28;88271;-91
2022/12/27 11:49:29;;;;;;;13.60;5.20;;;20.80;62.70;;;;;;5013705;27;88197;-87
2022/12/27 11:52:19;;;;;;;16.17;5.20;;;20.80;62.50;;;;;;5011290;28;90148;-89
2022/12/27 11:54:56;;;;;;;14.13;5.18;;;20.80;62.60;;;;;;5004808;28;91649;-88
2022/12/27 11:57:40;;;;;;;11.73;4.40;;;20.80;62.70;;;;;;5029313;27;86865;-89
2022/12/27 12:00:19;;;;;;;17.42;4.68;;;20.90;62.80;;;;;;5002212;27;88859;-89
2022/12/27 12:02:53;;;;;;;12.40;4.78;;;20.80;62.80;;;;;;5021273;27;91984;-89
2022/12/27 12:05:42;;;;;;;11.70;4.55;;;20.80;62.90;;;;;;5021769;28;88341;-88
2022/12/27 12:08:39;;;;;;;13.88;5.18;;;20.90;61.60;;;;;;5021610;28;87617;-89
2022/12/27 12:11:25;;;;;;;12.75;4.30;;;20.80;61.70;;;;;;4961696;28;90647;-89
2022/12/27 12:14:32;;;;;;;22.15;5.13;;;20.70;62.30;;;;;;4961392;28;96375;-91
2022/12/27 12:17:09;;;;;;;19.30;4.78;;;20.60;62.80;;;;;;4943029;28;96603;-90
2022/12/27 12:19:45;;;;;;;15.57;4.07;;;20.50;63.50;;;;;;4960309;28;87735;-89
2022/12/27 12:22:35;;;;;;;14.63;4.60;;;20.40;63.70;;;;;;4952655;28;90172;-90
2022/12/27 12:25:27;;;;;;;17.35;5.22;;;20.30;63.80;;;;;;4945433;28;90270;-89
2022/12/27 12:28:11;;;;;;;11.73;4.78;;;20.20;64.10;;;;;;4951723;28;91340;-89
2022/12/27 12:30:58;;;;;;;12.55;4.68;;;20.20;64.20;;;;;;4963884;28;87427;-89
2022/12/27 12:33:43;;;;;;;11.73;4.35;;;20.20;64.30;;;;;;4964516;28;86696;-90
2022/12/27 12:36:14;;;;;;;13.30;4.50;;;20.10;64.50;;;;;;4965697;28;89220;-90
2022/12/27 12:39:05;;;;;;;14.48;5.30;;;20.10;64.50;;;;;;4963240;28;88468;-88
2022/12/27 12:42:09;;;;;;;18.42;5.05;;;20.10;64.50;;;;;;4965047;28;88356;-89
2022/12/27 12:44:53;;;;;;;18.35;5.47;;;20.00;64.50;;;;;;4963212;28;87402;-90
2022/12/27 12:47:52;;;;;;;13.00;4.90;;;20.00;64.60;;;;;;4966043;28;87444;-90
2022/12/27 12:50:20;;;;;;;;;;;20.00;64.50;;;;;;4982374;27;88288;-90
2022/12/27 12:53:21;;;;;;;17.42;5.05;;;20.00;65.10;;;;;;5018342;28;87429;-91
2022/12/27 12:56:02;;;;;;;13.60;4.70;;;20.00;65.10;;;;;;4994183;28;91722;-90
2022/12/27 12:58:41;;;;;;;12.27;3.95;;;19.90;65.20;;;;;;4993182;28;88630;-90
2022/12/27 13:01:32;;;;;;;16.45;5.22;;;19.90;65.10;;;;;;4993563;28;87641;-88
2022/12/27 13:04:22;;;;;;;12.85;5.20;;;20.00;65.50;;;;;;4983835;28;87611;-88
2022/12/27 13:07:02;;;;;;;12.68;4.05;;;20.00;65.50;;;;;;4993570;28;86962;-89
2022/12/27 13:09:49;;;;;;;16.42;4.65;;;20.00;65.50;;;;;;4993685;28;88513;-90
2022/12/27 13:12:23;;;;;;;12.98;4.45;;;20.00;65.30;;;;;;4993292;28;88940;-90
2022/12/27 13:15:16;;;;;;;14.68;4.55;;;20.00;65.10;;;;;;4993005;28;87344;-90
2022/12/27 13:18:31;;;;;;;16.23;5.10;;;20.00;65.30;;;;;;4993033;28;87577;-90
2022/12/27 13:21:02;;;;;;;11.40;4.78;;;20.00;65.40;;;;;;4954109;28;88587;-90
2022/12/27 13:23:49;;;;;;;10.98;4.25;;;20.00;65.30;;;;;;4954427;28;87448;-90
2022/12/27 13:26:42;;;;;;;10.45;3.88;;;20.00;65.30;;;;;;4955157;28;87334;-89
2022/12/27 13:29:26;;;;;;;8.55;4.00;;;20.00;65.10;;;;;;4934730;28;92302;-89
2022/12/27 13:31:57;;;;;;;12.85;4.60;;;20.00;65.10;;;;;;4966393;28;91953;-90
2022/12/27 13:34:51;;;;;;;11.45;4.75;;;20.00;65.10;;;;;;4973478;28;88481;-90
2022/12/27 13:37:16;;;;;;;11.40;4.13;;;19.90;64.90;;;;;;4973585;28;88289;-88
2022/12/27 13:40:04;;;;;;;12.50;3.90;;;20.00;65.10;;;;;;4973723;28;87724;-90
2022/12/27 13:43:04;;;;;;;11.20;4.35;;;20.00;65.00;;;;;;4973058;28;88909;-90
2022/12/27 13:45:48;;;;;;;14.18;4.70;;;19.90;64.90;;;;;;4972838;28;88698;-89
2022/12/27 13:48:39;;;;;;;10.93;4.47;;;19.90;65.10;;;;;;4972951;28;87296;-89
2022/12/27 13:51:18;;;;;;;13.68;4.32;;;20.00;65.00;;;;;;4973225;28;87494;-90
2022/12/27 13:53:49;;;;;;;;;;;20.00;65.10;;;;;;4973625;28;88347;-89
2022/12/27 13:56:17;;;;;;;11.27;4.07;;;20.00;65.10;;;;;;4989310;28;87962;-90
2022/12/27 13:59:27;;;;;;;11.35;4.70;;;20.00;65.20;;;;;;4996222;28;86968;-90
2022/12/27 14:02:11;;;;;;;10.48;4.03;;;19.90;64.90;;;;;;4982914;28;90446;-88
2022/12/27 14:05:24;;;;;;;12.40;4.28;;;20.00;65.20;;;;;;4982043;28;89178;-90
2022/12/27 14:08:09;;;;;;;11.45;4.10;;;20.00;65.20;;;;;;4894025;28;92736;-89
2022/12/27 14:10:50;;;;;;;9.98;3.80;;;20.00;65.10;;;;;;4894788;28;87357;-90
2022/12/27 14:13:25;;;;;;;6.90;3.55;;;20.00;65.00;;;;;;4894692;28;87454;-87
2022/12/27 14:16:28;;;;;;;9.65;4.03;;;20.00;64.90;;;;;;4893238;28;87940;-87
2022/12/27 14:19:18;;;;;;;9.15;3.90;;;20.10;64.50;;;;;;4893738;28;87503;-87
2022/12/27 14:21:49;;;;;;;12.50;3.88;;;20.20;62.20;;;;;;4892192;28;87502;-88
2022/12/27 14:24:20;;;;;;;9.85;3.70;;;20.40;61.80;;;;;;4894089;28;87742;-88
2022/12/27 14:27:23;;;;;;;10.25;3.80;;;20.50;61.30;;;;;;4893779;28;88982;-90
2022/12/27 14:30:07;;;;;;;7.63;3.67;;;20.70;61.20;;;;;;4894407;28;88343;-88
2022/12/27 14:32:39;;;;;;;11.13;3.72;;;20.80;59.80;;;;;;4892927;28;88485;-87
2022/12/27 14:35:21;;;;;;;10.88;3.30;;;20.90;59.70;;;;;;4894329;28;87551;-87
2022/12/27 14:38:02;;;;;;;11.25;3.88;;;21.00;57.10;;;;;;4901289;28;93502;-86
2022/12/27 14:40:40;;;;;;;11.68;3.70;;;21.20;53.90;;;;;;4933435;28;88203;-87
2022/12/27 14:43:33;;;;;;;9.13;2.88;;;21.20;54.50;;;;;;4937683;28;87435;-87
2022/12/27 14:46:25;;;;;;;10.38;3.42;;;21.10;55.50;;;;;;5006976;28;87388;-87
2022/12/27 14:49:18;;;;;;;9.90;3.25;;;21.20;54.10;;;;;;5012522;27;88438;-85
2022/12/27 14:52:10;;;;;;;8.77;3.42;;;21.30;51.20;;;;;;5012087;27;88935;-86
2022/12/27 14:55:07;;;;;;;18.10;5.20;;;21.30;52.10;;;;;;5011698;27;87525;-85
2022/12/27 14:57:57;;;;;;;47.83;12.70;;;21.10;55.00;;;;;;4989986;28;87439;-85
2022/12/27 15:00:25;;;;;;;57.65;16.35;;;20.90;53.50;;;;;;4988802;28;89694;-85
2022/12/27 15:03:25;;;;;;;47.15;13.75;;;20.80;53.70;;;;;;4989496;28;88869;-87
2022/12/27 15:06:25;;;;;;;31.90;11.05;;;20.70;53.70;;;;;;4990203;28;87304;-87
2022/12/27 15:09:24;;;;;;;46.25;13.68;;;20.70;54.80;;;;;;4989390;28;87071;-87